createdAt,value
2023-06-29T00:00:24.167Z,1.15
2023-06-29T00:02:51.241Z,3.47
2023-06-29T00:05:19.779Z,2.58
2023-06-29T00:07:46.498Z,1.25
2023-06-29T00:10:17.211Z,6.03
2023-06-29T00:12:43.990Z,2.58
2023-06-29T00:15:11.095Z,2.72
2023-06-29T00:17:38.101Z,2.08
2023-06-29T00:20:10.773Z,3.80
2023-06-29T00:22:41.702Z,3.17
2023-06-29T00:25:11.907Z,2.03
2023-06-29T00:27:38.647Z,2.42
2023-06-29T00:30:06.074Z,0.82
2023-06-29T00:32:32.889Z,2.33
2023-06-29T00:34:59.801Z,4.63
2023-06-29T00:37:26.458Z,1.75
2023-06-29T00:39:53.097Z,1.23
2023-06-29T00:42:19.812Z,1.70
2023-06-29T00:44:48.055Z,2.13
2023-06-29T00:47:15.093Z,2.70
2023-06-29T00:49:42.552Z,5.85
2023-06-29T00:52:09.295Z,4.32
2023-06-29T00:54:36.361Z,3.33
2023-06-29T00:57:03.196Z,5.75
2023-06-29T00:59:29.945Z,3.13
2023-06-29T01:01:56.908Z,6.72
2023-06-29T01:04:27.216Z,3.75
2023-06-29T01:07:07.390Z,2.67
2023-06-29T01:09:36.161Z,2.30
2023-06-29T01:12:04.619Z,4.57
2023-06-29T01:14:34.397Z,2.65
2023-06-29T01:17:03.452Z,1.67
2023-06-29T01:19:32.698Z,8.27
2023-06-29T01:22:04.645Z,4.03
2023-06-29T01:27:13.798Z,5.13
2023-06-29T01:29:40.685Z,2.40
2023-06-29T01:32:08.579Z,4.85
2023-06-29T01:34:37.378Z,3.72
2023-06-29T01:37:08.176Z,8.32
2023-06-29T01:39:51.117Z,5.97
2023-06-29T01:42:21.027Z,8.38
2023-06-29T01:44:49.233Z,2.70
2023-06-29T01:47:18.325Z,1.83
2023-06-29T01:49:45.508Z,4.10
2023-06-29T01:52:12.517Z,4.28
2023-06-29T01:54:39.291Z,1.48
2023-06-29T01:57:06.998Z,3.83
2023-06-29T01:59:33.959Z,3.13
2023-06-29T02:02:01.118Z,7.90
2023-06-29T02:04:27.796Z,4.80
2023-06-29T02:06:54.617Z,2.47
2023-06-29T02:09:21.457Z,4.55
2023-06-29T02:11:48.120Z,3.60
2023-06-29T02:14:14.773Z,5.18
2023-06-29T02:16:41.538Z,6.32
2023-06-29T02:19:08.202Z,3.15
2023-06-29T02:21:34.862Z,3.35
2023-06-29T02:24:01.605Z,2.72
2023-06-29T02:26:30.047Z,4.47
2023-06-29T02:28:56.810Z,2.92
2023-06-29T02:31:23.537Z,3.78
2023-06-29T02:33:50.633Z,8.68
2023-06-29T02:36:19.228Z,7.03
2023-06-29T02:38:45.862Z,4.18
2023-06-29T02:41:12.558Z,4.57
2023-06-29T02:43:39.327Z,3.67
2023-06-29T02:46:05.984Z,4.22
2023-06-29T02:48:41.805Z,4.20
2023-06-29T02:51:08.603Z,2.63
2023-06-29T02:53:35.245Z,6.00
2023-06-29T02:56:01.965Z,5.45
2023-06-29T02:58:28.631Z,4.53
2023-06-29T03:00:55.325Z,9.82
2023-06-29T03:03:22.101Z,4.45
2023-06-29T03:05:48.860Z,3.80
2023-06-29T03:08:15.570Z,4.38
2023-06-29T03:10:42.266Z,3.35
2023-06-29T03:13:10.180Z,4.15
2023-06-29T03:15:37.137Z,4.35
2023-06-29T03:18:03.941Z,3.38
2023-06-29T03:20:30.636Z,3.05
2023-06-29T03:22:57.299Z,4.60
2023-06-29T03:25:23.934Z,3.38
2023-06-29T03:27:50.622Z,5.32
2023-06-29T03:30:17.347Z,9.43
2023-06-29T03:32:44.006Z,3.40
2023-06-29T03:35:10.763Z,6.03
2023-06-29T03:37:37.522Z,6.32
2023-06-29T03:40:04.483Z,4.32
2023-06-29T03:42:31.179Z,3.13
2023-06-29T03:44:57.876Z,3.38
2023-06-29T03:47:24.712Z,4.80
2023-06-29T03:49:51.573Z,3.63
2023-06-29T03:52:18.379Z,5.68
2023-06-29T03:54:45.120Z,5.20
2023-06-29T03:57:11.944Z,3.22
2023-06-29T03:59:38.625Z,6.75
2023-06-29T04:02:05.472Z,2.53
2023-06-29T04:04:32.462Z,4.40
2023-06-29T04:06:59.228Z,4.60
2023-06-29T04:09:25.956Z,3.55
2023-06-29T04:11:53.668Z,8.95
2023-06-29T04:14:20.353Z,3.60
2023-06-29T04:16:47.121Z,8.27
2023-06-29T04:19:15.373Z,5.72
2023-06-29T04:21:43.676Z,5.82
2023-06-29T04:24:10.312Z,4.13
2023-06-29T04:26:39.895Z,2.13
2023-06-29T04:29:09.727Z,7.40
2023-06-29T04:31:36.498Z,3.67
2023-06-29T04:34:04.292Z,2.47
2023-06-29T04:36:31.649Z,8.05
2023-06-29T04:38:58.388Z,7.35
2023-06-29T04:41:32.569Z,5.88
2023-06-29T04:44:04.708Z,7.97
2023-06-29T04:46:33.667Z,6.50
2023-06-29T04:49:06.396Z,4.95
2023-06-29T04:51:39.351Z,5.10
2023-06-29T04:54:08.836Z,2.78
2023-06-29T04:56:35.540Z,4.47
2023-06-29T04:59:02.264Z,3.58
2023-06-29T05:01:28.984Z,11.65
2023-06-29T05:03:55.845Z,4.13
2023-06-29T05:06:22.493Z,3.55
2023-06-29T05:08:49.422Z,3.95
2023-06-29T05:11:16.201Z,8.73
2023-06-29T05:13:42.850Z,4.30
2023-06-29T05:16:10.663Z,5.43
2023-06-29T05:18:38.355Z,5.45
2023-06-29T05:21:05.435Z,6.18
2023-06-29T05:23:32.724Z,3.08
2023-06-29T05:26:00.316Z,4.35
2023-06-29T05:28:27.172Z,8.45
2023-06-29T05:30:54.087Z,7.35
2023-06-29T05:33:20.839Z,6.18
2023-06-29T05:35:49.621Z,6.85
2023-06-29T05:38:16.315Z,4.00
2023-06-29T05:40:43.407Z,3.80
2023-06-29T05:43:10.460Z,7.38
2023-06-29T05:45:37.718Z,3.78
2023-06-29T05:48:04.636Z,3.47
2023-06-29T05:50:31.355Z,4.95
2023-06-29T05:52:57.989Z,6.60
2023-06-29T05:55:25.272Z,6.40
2023-06-29T05:57:55.149Z,5.40
2023-06-29T06:00:21.974Z,4.13
2023-06-29T06:02:48.909Z,5.10
2023-06-29T06:05:15.754Z,5.45
2023-06-29T06:07:42.661Z,6.93
2023-06-29T06:10:09.686Z,4.68
2023-06-29T06:12:36.428Z,4.22
2023-06-29T06:15:03.268Z,5.40
2023-06-29T06:17:29.913Z,4.05
2023-06-29T06:19:56.862Z,2.38
2023-06-29T06:22:23.718Z,3.72
2023-06-29T06:24:50.515Z,6.07
2023-06-29T06:27:17.201Z,5.07
2023-06-29T06:29:45.282Z,3.05
2023-06-29T06:32:12.189Z,6.25
2023-06-29T06:34:39.022Z,6.82
2023-06-29T06:37:07.320Z,5.57
2023-06-29T06:39:33.985Z,9.25
2023-06-29T06:42:01.218Z,6.85
2023-06-29T06:44:28.094Z,3.38
2023-06-29T06:46:55.001Z,4.25
2023-06-29T06:49:22.863Z,7.53
2023-06-29T06:51:50.407Z,3.38
2023-06-29T06:54:20.302Z,5.47
2023-06-29T06:56:48.320Z,5.70
2023-06-29T06:59:15.733Z,6.00
2023-06-29T07:01:42.867Z,4.22
2023-06-29T07:04:09.669Z,5.53
2023-06-29T07:06:36.414Z,8.35
2023-06-29T07:09:04.811Z,7.47
2023-06-29T07:11:31.699Z,6.15
2023-06-29T07:13:58.404Z,3.70
2023-06-29T07:16:26.536Z,2.85
2023-06-29T07:21:38.198Z,4.18
2023-06-29T07:24:08.060Z,3.17
2023-06-29T07:26:35.928Z,3.50
2023-06-29T07:29:05.209Z,7.32
2023-06-29T07:31:32.103Z,3.58
2023-06-29T07:33:58.989Z,3.53
2023-06-29T07:36:27.719Z,3.72
2023-06-29T07:38:54.528Z,7.18
2023-06-29T07:41:22.241Z,4.03
2023-06-29T07:43:56.837Z,6.43
2023-06-29T07:46:24.564Z,4.53
2023-06-29T07:48:52.578Z,1.88
2023-06-29T07:51:19.326Z,6.70
2023-06-29T07:53:46.474Z,9.25
2023-06-29T07:56:13.348Z,3.72
2023-06-29T07:58:40.514Z,5.90
2023-06-29T08:01:07.462Z,4.88
2023-06-29T08:03:44.015Z,3.63
2023-06-29T08:08:48.304Z,4.85
2023-06-29T08:11:18.035Z,5.95
2023-06-29T08:13:44.781Z,4.82
2023-06-29T08:16:11.677Z,4.30
2023-06-29T08:18:39.176Z,3.88
2023-06-29T08:21:06.018Z,6.32
2023-06-29T08:23:33.895Z,4.35
2023-06-29T08:26:00.693Z,5.88
2023-06-29T08:28:27.462Z,4.05
2023-06-29T08:30:54.211Z,4.15
2023-06-29T08:33:21.414Z,5.80
2023-06-29T08:35:48.254Z,4.38
2023-06-29T08:38:14.903Z,2.55
2023-06-29T08:40:45.975Z,4.78
2023-06-29T08:43:16.905Z,1.90
2023-06-29T08:45:44.150Z,5.13
2023-06-29T08:48:13.975Z,4.75
2023-06-29T08:50:46.793Z,4.20
2023-06-29T08:53:15.002Z,5.80
2023-06-29T08:55:43.083Z,3.88
2023-06-29T08:58:10.086Z,2.95
2023-06-29T09:00:38.765Z,2.95
2023-06-29T09:03:06.897Z,2.55
2023-06-29T09:05:36.206Z,4.95
2023-06-29T09:08:03.649Z,5.88
2023-06-29T09:10:30.476Z,3.00
2023-06-29T09:12:57.168Z,8.27
2023-06-29T09:15:27.176Z,5.53
2023-06-29T09:17:57.426Z,5.25
2023-06-29T09:20:26.272Z,5.88
2023-06-29T09:22:53.312Z,2.30
2023-06-29T09:25:33.161Z,7.45
2023-06-29T09:28:03.145Z,2.17
2023-06-29T09:30:36.528Z,8.15
2023-06-29T09:33:08.830Z,5.30
2023-06-29T09:35:37.738Z,1.13
2023-06-29T09:38:04.466Z,3.65
2023-06-29T09:40:31.426Z,4.13
2023-06-29T09:43:02.676Z,3.50
2023-06-29T09:45:31.841Z,4.40
2023-06-29T09:50:28.772Z,3.78
2023-06-29T09:52:56.614Z,4.25
2023-06-29T09:55:31.066Z,2.15
2023-06-29T09:57:59.294Z,5.30
2023-06-29T10:00:28.968Z,4.78
2023-06-29T10:02:57.163Z,5.18
2023-06-29T10:05:24.099Z,8.80
2023-06-29T10:07:54.475Z,6.80
2023-06-29T10:10:24.891Z,5.55
2023-06-29T10:12:56.623Z,2.22
2023-06-29T10:18:28.105Z,7.43
2023-06-29T10:20:54.913Z,5.38
2023-06-29T10:23:26.813Z,8.63
2023-06-29T10:25:54.495Z,3.35
2023-06-29T10:28:22.302Z,4.40
2023-06-29T10:30:52.025Z,4.82
2023-06-29T10:33:23.839Z,6.63
2023-06-29T10:36:03.826Z,3.83
2023-06-29T10:38:34.657Z,4.57
2023-06-29T10:41:01.894Z,4.90
2023-06-29T10:43:29.257Z,2.20
2023-06-29T10:45:55.998Z,3.25
2023-06-29T10:48:43.110Z,3.25
2023-06-29T10:51:09.980Z,4.40
2023-06-29T10:53:36.800Z,4.70
2023-06-29T10:56:03.654Z,5.22
2023-06-29T10:58:54.271Z,3.00
2023-06-29T11:01:21.650Z,2.28
2023-06-29T11:03:48.586Z,1.73
2023-06-29T11:09:13.173Z,3.63
2023-06-29T11:11:41.067Z,3.83
2023-06-29T11:14:07.839Z,3.60
2023-06-29T11:16:35.363Z,2.65
2023-06-29T11:19:03.769Z,3.67
2023-06-29T11:21:30.477Z,1.50
2023-06-29T11:23:57.297Z,4.68
2023-06-29T11:26:24.804Z,2.00
2023-06-29T11:28:52.660Z,5.88
2023-06-29T11:31:21.201Z,3.40
2023-06-29T11:33:49.309Z,3.78
2023-06-29T11:36:16.472Z,6.95
2023-06-29T11:38:43.309Z,3.17
2023-06-29T11:41:10.417Z,4.50
2023-06-29T11:43:37.426Z,1.42
2023-06-29T11:46:04.338Z,3.22
2023-06-29T11:48:31.475Z,3.17
2023-06-29T11:51:02.058Z,3.22
2023-06-29T11:53:29.554Z,4.43
2023-06-29T11:55:57.054Z,6.93
2023-06-29T11:58:23.885Z,2.08
2023-06-29T12:00:58.103Z,1.92
2023-06-29T12:03:25.473Z,3.28
2023-06-29T12:05:53.811Z,1.45
2023-06-29T12:08:21.746Z,2.00
2023-06-29T12:10:48.614Z,1.38
2023-06-29T12:13:15.400Z,4.00
2023-06-29T12:18:16.901Z,4.15
2023-06-29T12:20:46.537Z,2.30
2023-06-29T12:23:15.476Z,4.30
2023-06-29T12:25:51.390Z,6.10
2023-06-29T12:28:18.186Z,1.45
2023-06-29T12:30:45.360Z,3.92
2023-06-29T12:33:14.301Z,2.03
2023-06-29T12:35:41.662Z,3.83
2023-06-29T12:38:12.700Z,2.42
2023-06-29T12:40:39.513Z,3.38
2023-06-29T12:43:06.309Z,4.00
2023-06-29T12:45:33.033Z,3.47
2023-06-29T12:47:59.775Z,3.50
2023-06-29T12:50:26.562Z,4.72
2023-06-29T12:52:53.830Z,3.67
2023-06-29T12:55:20.800Z,2.38
2023-06-29T12:57:47.496Z,4.40
2023-06-29T13:00:14.718Z,3.55
2023-06-29T13:02:41.757Z,3.67
2023-06-29T13:05:09.356Z,4.30
2023-06-29T13:07:37.203Z,3.22
2023-06-29T13:10:04.953Z,3.00
2023-06-29T13:12:31.889Z,4.35
2023-06-29T13:15:01.856Z,3.35
2023-06-29T13:17:28.586Z,1.67
2023-06-29T13:19:55.314Z,6.25
2023-06-29T13:22:24.180Z,4.30
2023-06-29T13:24:51.069Z,3.13
2023-06-29T13:27:18.040Z,2.20
2023-06-29T13:29:44.715Z,2.60
2023-06-29T13:32:11.680Z,4.68
2023-06-29T13:34:38.577Z,4.07
2023-06-29T13:37:05.650Z,4.40
2023-06-29T13:39:32.434Z,6.35
2023-06-29T13:41:59.187Z,5.25
2023-06-29T13:44:25.827Z,2.85
2023-06-29T13:46:52.514Z,3.22
2023-06-29T13:49:19.268Z,1.67
2023-06-29T13:51:47.114Z,2.05
2023-06-29T13:54:16.763Z,2.50
2023-06-29T13:56:43.812Z,2.00
2023-06-29T13:59:10.857Z,5.82
2023-06-29T14:01:39.937Z,3.30
2023-06-29T14:04:08.440Z,4.93
2023-06-29T14:06:40.794Z,2.53
2023-06-29T14:09:09.525Z,2.40
2023-06-29T14:11:36.550Z,8.50
2023-06-29T14:14:03.556Z,2.72
2023-06-29T14:16:30.586Z,4.15
2023-06-29T14:18:58.291Z,4.72
2023-06-29T14:21:25.231Z,5.10
2023-06-29T14:23:54.955Z,3.83
2023-06-29T14:26:22.372Z,5.28
2023-06-29T14:28:49.143Z,8.73
2023-06-29T14:31:18.038Z,4.13
2023-06-29T14:33:45.274Z,4.13
2023-06-29T14:36:12.222Z,5.32
2023-06-29T14:38:38.995Z,9.77
2023-06-29T14:41:05.696Z,5.20
2023-06-29T14:43:32.454Z,6.45
2023-06-29T14:45:59.347Z,5.38
2023-06-29T14:48:27.021Z,4.43
2023-06-29T14:50:54.032Z,4.57
2023-06-29T14:53:24.407Z,3.20
2023-06-29T14:56:04.102Z,2.70
2023-06-29T14:58:31.244Z,5.97
2023-06-29T15:00:58.194Z,2.92
2023-06-29T15:03:25.052Z,1.35
2023-06-29T15:05:51.779Z,3.40
2023-06-29T15:08:18.431Z,3.28
2023-06-29T15:10:45.182Z,4.82
2023-06-29T15:13:11.934Z,5.47
2023-06-29T15:15:38.588Z,4.68
2023-06-29T15:18:06.175Z,4.25
2023-06-29T15:20:32.910Z,3.13
2023-06-29T15:22:59.549Z,7.85
2023-06-29T15:25:26.271Z,9.27
2023-06-29T15:27:53.160Z,4.50
2023-06-29T15:30:20.181Z,4.32
2023-06-29T15:32:47.000Z,2.45
2023-06-29T15:35:13.737Z,6.15
2023-06-29T15:37:40.499Z,4.22
2023-06-29T15:40:08.225Z,5.25
2023-06-29T15:42:35.022Z,4.55
2023-06-29T15:45:02.801Z,7.50
2023-06-29T15:47:29.577Z,5.72
2023-06-29T15:49:56.920Z,8.00
2023-06-29T15:52:23.708Z,3.58
2023-06-29T15:54:50.417Z,4.45
2023-06-29T15:57:17.085Z,3.88
2023-06-29T15:59:43.846Z,5.05
2023-06-29T16:02:10.529Z,4.32
2023-06-29T16:04:37.271Z,5.18
2023-06-29T16:07:07.618Z,8.60
2023-06-29T16:09:35.587Z,6.43
2023-06-29T16:12:02.274Z,1.48
2023-06-29T16:14:29.013Z,9.82
2023-06-29T16:16:55.950Z,6.72
2023-06-29T16:19:23.552Z,6.80
2023-06-29T16:21:50.292Z,3.63
2023-06-29T16:24:17.167Z,5.28
2023-06-29T16:26:44.725Z,9.35
2023-06-29T16:29:11.449Z,3.63
2023-06-29T16:31:38.266Z,7.55
2023-06-29T16:34:05.326Z,4.05
2023-06-29T16:36:32.595Z,5.18
2023-06-29T16:38:59.377Z,7.72
2023-06-29T16:41:26.056Z,7.97
2023-06-29T16:43:54.439Z,8.40
2023-06-29T16:46:21.412Z,10.05
2023-06-29T16:48:59.274Z,7.78
2023-06-29T16:51:29.007Z,3.55
2023-06-29T16:53:56.289Z,4.28
2023-06-29T16:56:23.035Z,3.47
2023-06-29T16:58:50.257Z,5.00
2023-06-29T17:01:17.088Z,4.47
2023-06-29T17:03:44.978Z,3.83
2023-06-29T17:06:11.997Z,2.47
2023-06-29T17:08:41.178Z,4.40
2023-06-29T17:11:08.481Z,2.40
2023-06-29T17:13:35.471Z,5.15
2023-06-29T17:16:02.638Z,4.22
2023-06-29T17:18:29.540Z,5.95
2023-06-29T17:20:56.234Z,3.80
2023-06-29T17:23:22.909Z,6.40
2023-06-29T17:25:51.756Z,3.28
2023-06-29T17:28:20.069Z,7.55
2023-06-29T17:30:46.985Z,5.22
2023-06-29T17:33:14.772Z,5.63
2023-06-29T17:35:41.571Z,8.07
2023-06-29T17:38:08.349Z,3.58
2023-06-29T17:40:35.066Z,2.70
2023-06-29T17:43:02.163Z,6.22
2023-06-29T17:45:29.031Z,8.98
2023-06-29T17:47:56.425Z,6.05
2023-06-29T17:50:23.417Z,2.08
2023-06-29T17:52:50.571Z,9.27
2023-06-29T17:55:18.430Z,3.58
2023-06-29T17:57:45.452Z,3.88
2023-06-29T18:00:13.943Z,2.90
2023-06-29T18:02:40.918Z,7.00
2023-06-29T18:05:08.999Z,4.32
2023-06-29T18:07:36.174Z,9.00
2023-06-29T18:10:07.695Z,3.33
2023-06-29T18:12:35.420Z,4.80
2023-06-29T18:15:02.520Z,2.47
2023-06-29T18:17:29.313Z,3.35
2023-06-29T18:19:56.250Z,4.43
2023-06-29T18:22:23.124Z,2.47
2023-06-29T18:24:49.918Z,6.00
2023-06-29T18:27:16.698Z,4.15
2023-06-29T18:29:43.920Z,8.43
2023-06-29T18:32:11.416Z,7.43
2023-06-29T18:34:38.178Z,6.00
2023-06-29T18:37:05.210Z,4.55
2023-06-29T18:39:31.964Z,2.50
2023-06-29T18:41:59.302Z,4.82
2023-06-29T18:44:26.150Z,7.72
2023-06-29T18:47:13.657Z,4.30
2023-06-29T18:49:51.431Z,3.83
2023-06-29T18:52:20.126Z,3.35
2023-06-29T18:54:46.971Z,3.88
2023-06-29T18:57:13.684Z,4.95
2023-06-29T18:59:40.484Z,5.78
2023-06-29T19:02:07.331Z,6.32
2023-06-29T19:04:34.729Z,4.70
2023-06-29T19:07:02.205Z,11.38
2023-06-29T19:09:29.852Z,8.30
2023-06-29T19:11:57.670Z,3.85
2023-06-29T19:14:25.023Z,5.53
2023-06-29T19:16:52.010Z,3.33
2023-06-29T19:19:18.765Z,7.82
2023-06-29T19:21:49.131Z,9.95
2023-06-29T19:24:17.677Z,4.35
2023-06-29T19:26:44.943Z,4.07
2023-06-29T19:29:12.972Z,4.95
2023-06-29T19:31:42.000Z,5.03
2023-06-29T19:34:10.339Z,5.90
2023-06-29T19:36:37.161Z,6.25
2023-06-29T19:39:03.948Z,4.78
2023-06-29T19:41:31.178Z,12.20
2023-06-29T19:43:57.829Z,5.82
2023-06-29T19:46:24.708Z,11.77
2023-06-29T19:48:51.417Z,6.57
2023-06-29T19:51:18.174Z,4.47
2023-06-29T19:53:45.522Z,6.78
2023-06-29T19:56:12.337Z,5.97
2023-06-29T19:58:39.099Z,5.22
2023-06-29T20:01:05.819Z,4.05
2023-06-29T20:03:32.692Z,3.33
2023-06-29T20:05:59.546Z,6.03
2023-06-29T20:08:26.336Z,7.82
2023-06-29T20:10:54.226Z,4.55
2023-06-29T20:13:20.948Z,4.05
2023-06-29T20:15:48.020Z,7.45
2023-06-29T20:18:15.049Z,6.53
2023-06-29T20:20:41.770Z,5.88
2023-06-29T20:23:10.386Z,6.95
2023-06-29T20:25:37.055Z,6.30
2023-06-29T20:28:03.862Z,6.95
2023-06-29T20:30:30.569Z,5.40
2023-06-29T20:32:57.368Z,10.25
2023-06-29T20:35:24.067Z,9.73
2023-06-29T20:37:50.739Z,8.40
2023-06-29T20:40:18.382Z,8.13
2023-06-29T20:42:45.041Z,6.50
2023-06-29T20:45:13.516Z,5.97
2023-06-29T20:47:41.073Z,11.23
2023-06-29T20:50:08.147Z,10.63
2023-06-29T20:52:34.802Z,11.10
2023-06-29T20:55:01.471Z,5.22
2023-06-29T20:57:28.345Z,6.55
2023-06-29T20:59:55.532Z,10.15
2023-06-29T21:02:22.429Z,10.57
2023-06-29T21:04:49.670Z,7.07
2023-06-29T21:07:16.644Z,9.73
2023-06-29T21:09:43.470Z,10.80
2023-06-29T21:12:10.966Z,11.65
2023-06-29T21:14:37.866Z,7.53
2023-06-29T21:17:04.870Z,6.38
2023-06-29T21:19:31.952Z,8.43
2023-06-29T21:21:59.167Z,10.30
2023-06-29T21:24:25.997Z,6.45
2023-06-29T21:26:53.631Z,5.75
2023-06-29T21:29:40.644Z,8.82
2023-06-29T21:32:11.185Z,10.20
2023-06-29T21:34:38.405Z,10.55
2023-06-29T21:37:05.737Z,10.07
2023-06-29T21:39:32.668Z,8.88
2023-06-29T21:41:59.421Z,7.43
2023-06-29T21:44:26.769Z,16.08
2023-06-29T21:46:53.520Z,8.25
2023-06-29T21:49:20.273Z,9.70
2023-06-29T21:51:47.174Z,13.77
2023-06-29T21:54:15.206Z,9.23
2023-06-29T21:56:42.258Z,11.88
2023-06-29T21:59:10.037Z,12.73
2023-06-29T22:01:37.087Z,10.63
2023-06-29T22:04:04.025Z,9.90
2023-06-29T22:06:30.910Z,12.25
2023-06-29T22:08:58.023Z,9.40
2023-06-29T22:11:27.846Z,12.63
2023-06-29T22:13:55.191Z,14.13
2023-06-29T22:16:23.723Z,14.10
2023-06-29T22:18:52.000Z,10.80
2023-06-29T22:21:22.301Z,11.90
2023-06-29T22:23:51.351Z,18.10
2023-06-29T22:26:18.647Z,12.95
2023-06-29T22:28:46.392Z,9.93
2023-06-29T22:31:15.423Z,15.75
2023-06-29T22:33:42.467Z,12.32
2023-06-29T22:36:09.458Z,9.13
2023-06-29T22:38:36.476Z,12.18
2023-06-29T22:41:05.670Z,13.55
2023-06-29T22:43:33.377Z,10.40
2023-06-29T22:46:01.243Z,11.75
2023-06-29T22:48:28.008Z,13.32
2023-06-29T22:50:56.858Z,13.18
2023-06-29T22:53:24.412Z,14.20
2023-06-29T22:55:51.143Z,16.02
2023-06-29T22:58:25.416Z,14.73
2023-06-29T23:00:56.031Z,10.75
2023-06-29T23:03:23.433Z,19.23
2023-06-29T23:05:52.828Z,13.98
2023-06-29T23:08:19.527Z,9.70
2023-06-29T23:10:50.392Z,10.55
2023-06-29T23:13:17.550Z,16.43
2023-06-29T23:15:46.243Z,10.68
2023-06-29T23:18:14.191Z,14.73
2023-06-29T23:20:47.741Z,12.20
2023-06-29T23:23:14.740Z,8.68
2023-06-29T23:25:42.719Z,13.98
2023-06-29T23:28:09.631Z,8.90
2023-06-29T23:30:36.755Z,13.52
2023-06-29T23:33:03.642Z,11.52
2023-06-29T23:35:30.355Z,7.35
2023-06-29T23:37:57.041Z,9.35
2023-06-29T23:40:23.776Z,12.13
2023-06-29T23:42:51.112Z,10.60
2023-06-29T23:45:17.987Z,11.15
2023-06-29T23:47:44.727Z,8.20
2023-06-29T23:50:14.103Z,9.82
2023-06-29T23:52:41.766Z,15.48
2023-06-29T23:55:10.515Z,11.88
2023-06-29T23:57:37.187Z,11.48
